sensor_id;sensor_type;location;lat;lon;timestamp;P1;durP1;ratioP1;P2;durP2;ratioP2
40074;SDS011;26529;51.530;11.754;2023-05-07T00:01:04;2.17;;;1.20;;
40074;SDS011;26529;51.530;11.754;2023-05-07T00:03:31;2.45;;;1.30;;
40074;SDS011;26529;51.530;11.754;2023-05-07T00:05:57;2.95;;;1.35;;
40074;SDS011;26529;51.530;11.754;2023-05-07T00:08:23;2.35;;;1.13;;
40074;SDS011;26529;51.530;11.754;2023-05-07T00:10:49;4.32;;;1.52;;
40074;SDS011;26529;51.530;11.754;2023-05-07T00:13:14;2.08;;;1.20;;
40074;SDS011;26529;51.530;11.754;2023-05-07T00:15:40;2.47;;;1.40;;
40074;SDS011;26529;51.530;11.754;2023-05-07T00:18:05;1.70;;;1.00;;
40074;SDS011;26529;51.530;11.754;2023-05-07T00:20:31;3.03;;;1.13;;
40074;SDS011;26529;51.530;11.754;2023-05-07T00:22:57;2.40;;;1.30;;
40074;SDS011;26529;51.530;11.754;2023-05-07T00:25:22;2.28;;;1.20;;
40074;SDS011;26529;51.530;11.754;2023-05-07T00:27:48;2.78;;;1.40;;
40074;SDS011;26529;51.530;11.754;2023-05-07T00:30:13;2.95;;;1.27;;
40074;SDS011;26529;51.530;11.754;2023-05-07T00:32:39;2.38;;;1.15;;
40074;SDS011;26529;51.530;11.754;2023-05-07T00:35:05;3.15;;;1.50;;
40074;SDS011;26529;51.530;11.754;2023-05-07T00:37:31;3.58;;;1.30;;
40074;SDS011;26529;51.530;11.754;2023-05-07T00:39:57;4.22;;;1.48;;
40074;SDS011;26529;51.530;11.754;2023-05-07T00:42:22;3.42;;;1.55;;
40074;SDS011;26529;51.530;11.754;2023-05-07T00:44:49;3.35;;;1.10;;
40074;SDS011;26529;51.530;11.754;2023-05-07T00:47:15;3.38;;;1.42;;
40074;SDS011;26529;51.530;11.754;2023-05-07T00:49:42;3.03;;;1.05;;
40074;SDS011;26529;51.530;11.754;2023-05-07T00:52:13;2.55;;;1.30;;
40074;SDS011;26529;51.530;11.754;2023-05-07T00:54:40;1.50;;;1.15;;
40074;SDS011;26529;51.530;11.754;2023-05-07T00:57:07;2.90;;;1.40;;
40074;SDS011;26529;51.530;11.754;2023-05-07T00:59:35;2.92;;;1.45;;
40074;SDS011;26529;51.530;11.754;2023-05-07T01:02:00;4.57;;;1.35;;
40074;SDS011;26529;51.530;11.754;2023-05-07T01:04:26;2.33;;;1.75;;
40074;SDS011;26529;51.530;11.754;2023-05-07T01:06:52;1.50;;;1.10;;
40074;SDS011;26529;51.530;11.754;2023-05-07T01:09:21;4.57;;;1.17;;
40074;SDS011;26529;51.530;11.754;2023-05-07T01:11:48;3.47;;;1.48;;
40074;SDS011;26529;51.530;11.754;2023-05-07T01:14:15;3.58;;;1.15;;
40074;SDS011;26529;51.530;11.754;2023-05-07T01:16:41;1.58;;;1.02;;
40074;SDS011;26529;51.530;11.754;2023-05-07T01:19:08;4.65;;;1.30;;
40074;SDS011;26529;51.530;11.754;2023-05-07T01:21:36;2.10;;;1.17;;
40074;SDS011;26529;51.530;11.754;2023-05-07T01:24:04;1.40;;;0.98;;
40074;SDS011;26529;51.530;11.754;2023-05-07T01:26:31;1.63;;;1.30;;
40074;SDS011;26529;51.530;11.754;2023-05-07T01:28:57;4.90;;;1.25;;
40074;SDS011;26529;51.530;11.754;2023-05-07T01:31:23;2.47;;;0.95;;
40074;SDS011;26529;51.530;11.754;2023-05-07T01:33:49;7.50;;;1.45;;
40074;SDS011;26529;51.530;11.754;2023-05-07T01:36:17;1.50;;;1.05;;
40074;SDS011;26529;51.530;11.754;2023-05-07T01:38:45;1.73;;;1.05;;
40074;SDS011;26529;51.530;11.754;2023-05-07T01:41:11;2.53;;;1.35;;
40074;SDS011;26529;51.530;11.754;2023-05-07T01:43:38;3.45;;;1.10;;
40074;SDS011;26529;51.530;11.754;2023-05-07T01:46:06;2.55;;;0.93;;
40074;SDS011;26529;51.530;11.754;2023-05-07T01:48:33;4.32;;;1.30;;
40074;SDS011;26529;51.530;11.754;2023-05-07T01:50:59;2.28;;;1.20;;
40074;SDS011;26529;51.530;11.754;2023-05-07T01:53:27;2.00;;;1.08;;
40074;SDS011;26529;51.530;11.754;2023-05-07T01:55:53;1.50;;;1.20;;
40074;SDS011;26529;51.530;11.754;2023-05-07T01:58:20;3.35;;;1.17;;
40074;SDS011;26529;51.530;11.754;2023-05-07T02:00:45;1.35;;;0.80;;
40074;SDS011;26529;51.530;11.754;2023-05-07T02:03:11;1.30;;;1.20;;
40074;SDS011;26529;51.530;11.754;2023-05-07T02:05:44;2.55;;;1.40;;
40074;SDS011;26529;51.530;11.754;2023-05-07T02:08:17;2.97;;;1.67;;
40074;SDS011;26529;51.530;11.754;2023-05-07T02:10:42;3.20;;;1.40;;
40074;SDS011;26529;51.530;11.754;2023-05-07T02:13:08;4.18;;;1.27;;
40074;SDS011;26529;51.530;11.754;2023-05-07T02:15:34;3.30;;;1.25;;
40074;SDS011;26529;51.530;11.754;2023-05-07T02:18:06;2.78;;;1.30;;
40074;SDS011;26529;51.530;11.754;2023-05-07T02:20:34;1.45;;;0.90;;
40074;SDS011;26529;51.530;11.754;2023-05-07T02:23:01;2.90;;;1.00;;
40074;SDS011;26529;51.530;11.754;2023-05-07T02:25:28;2.25;;;0.90;;
40074;SDS011;26529;51.530;11.754;2023-05-07T02:27:55;2.03;;;1.10;;
40074;SDS011;26529;51.530;11.754;2023-05-07T02:30:25;3.03;;;1.25;;
40074;SDS011;26529;51.530;11.754;2023-05-07T02:32:52;3.33;;;1.40;;
40074;SDS011;26529;51.530;11.754;2023-05-07T02:35:17;2.88;;;1.20;;
40074;SDS011;26529;51.530;11.754;2023-05-07T02:37:43;1.60;;;0.98;;
40074;SDS011;26529;51.530;11.754;2023-05-07T02:40:09;2.42;;;1.20;;
40074;SDS011;26529;51.530;11.754;2023-05-07T02:42:35;3.70;;;1.33;;
40074;SDS011;26529;51.530;11.754;2023-05-07T02:45:00;1.73;;;1.00;;
40074;SDS011;26529;51.530;11.754;2023-05-07T02:47:26;2.88;;;1.25;;
40074;SDS011;26529;51.530;11.754;2023-05-07T02:49:55;2.13;;;1.08;;
40074;SDS011;26529;51.530;11.754;2023-05-07T02:52:21;1.55;;;1.02;;
40074;SDS011;26529;51.530;11.754;2023-05-07T02:54:47;1.92;;;1.30;;
40074;SDS011;26529;51.530;11.754;2023-05-07T02:57:12;3.80;;;1.10;;
40074;SDS011;26529;51.530;11.754;2023-05-07T02:59:38;2.38;;;1.10;;
40074;SDS011;26529;51.530;11.754;2023-05-07T03:02:04;2.28;;;1.27;;
40074;SDS011;26529;51.530;11.754;2023-05-07T03:04:29;2.22;;;1.45;;
40074;SDS011;26529;51.530;11.754;2023-05-07T03:06:55;1.80;;;1.05;;
40074;SDS011;26529;51.530;11.754;2023-05-07T03:09:20;2.88;;;1.00;;
40074;SDS011;26529;51.530;11.754;2023-05-07T03:11:46;1.52;;;1.10;;
40074;SDS011;26529;51.530;11.754;2023-05-07T03:14:11;1.92;;;1.00;;
40074;SDS011;26529;51.530;11.754;2023-05-07T03:16:37;3.25;;;1.13;;
40074;SDS011;26529;51.530;11.754;2023-05-07T03:19:03;1.35;;;0.98;;
40074;SDS011;26529;51.530;11.754;2023-05-07T03:21:29;2.88;;;1.23;;
40074;SDS011;26529;51.530;11.754;2023-05-07T03:23:55;1.92;;;0.90;;
40074;SDS011;26529;51.530;11.754;2023-05-07T03:26:21;2.17;;;1.05;;
40074;SDS011;26529;51.530;11.754;2023-05-07T03:28:47;1.83;;;1.02;;
40074;SDS011;26529;51.530;11.754;2023-05-07T03:31:15;1.85;;;1.00;;
40074;SDS011;26529;51.530;11.754;2023-05-07T03:33:50;1.23;;;1.00;;
40074;SDS011;26529;51.530;11.754;2023-05-07T03:36:20;1.75;;;1.00;;
40074;SDS011;26529;51.530;11.754;2023-05-07T03:38:45;3.10;;;1.15;;
40074;SDS011;26529;51.530;11.754;2023-05-07T03:41:12;1.23;;;0.82;;
40074;SDS011;26529;51.530;11.754;2023-05-07T03:43:38;2.00;;;0.98;;
40074;SDS011;26529;51.530;11.754;2023-05-07T03:46:08;3.35;;;1.10;;
40074;SDS011;26529;51.530;11.754;2023-05-07T03:48:34;2.45;;;1.20;;
40074;SDS011;26529;51.530;11.754;2023-05-07T03:50:59;1.35;;;0.90;;
40074;SDS011;26529;51.530;11.754;2023-05-07T03:53:28;2.78;;;1.10;;
40074;SDS011;26529;51.530;11.754;2023-05-07T03:55:54;3.00;;;1.05;;
40074;SDS011;26529;51.530;11.754;2023-05-07T03:58:20;1.77;;;0.85;;
40074;SDS011;26529;51.530;11.754;2023-05-07T04:00:46;0.95;;;0.70;;
40074;SDS011;26529;51.530;11.754;2023-05-07T04:03:21;1.98;;;0.82;;
40074;SDS011;26529;51.530;11.754;2023-05-07T04:05:47;1.98;;;0.82;;
40074;SDS011;26529;51.530;11.754;2023-05-07T04:08:12;2.97;;;0.95;;
40074;SDS011;26529;51.530;11.754;2023-05-07T04:10:40;2.33;;;1.05;;
40074;SDS011;26529;51.530;11.754;2023-05-07T04:13:09;1.38;;;0.70;;
40074;SDS011;26529;51.530;11.754;2023-05-07T04:15:36;1.65;;;0.70;;
40074;SDS011;26529;51.530;11.754;2023-05-07T04:18:03;3.17;;;1.30;;
40074;SDS011;26529;51.530;11.754;2023-05-07T04:20:28;2.42;;;1.08;;
40074;SDS011;26529;51.530;11.754;2023-05-07T04:23:00;1.90;;;1.00;;
40074;SDS011;26529;51.530;11.754;2023-05-07T04:25:25;1.25;;;0.70;;
40074;SDS011;26529;51.530;11.754;2023-05-07T04:27:57;1.95;;;1.17;;
40074;SDS011;26529;51.530;11.754;2023-05-07T04:30:25;1.50;;;0.93;;
40074;SDS011;26529;51.530;11.754;2023-05-07T04:32:51;2.05;;;1.00;;
40074;SDS011;26529;51.530;11.754;2023-05-07T04:35:18;1.90;;;1.10;;
40074;SDS011;26529;51.530;11.754;2023-05-07T04:37:44;2.22;;;0.88;;
40074;SDS011;26529;51.530;11.754;2023-05-07T04:40:10;1.08;;;0.60;;
40074;SDS011;26529;51.530;11.754;2023-05-07T04:42:35;2.58;;;0.77;;
40074;SDS011;26529;51.530;11.754;2023-05-07T04:45:02;2.47;;;0.80;;
40074;SDS011;26529;51.530;11.754;2023-05-07T04:47:31;1.08;;;0.77;;
40074;SDS011;26529;51.530;11.754;2023-05-07T04:49:59;2.35;;;1.25;;
40074;SDS011;26529;51.530;11.754;2023-05-07T04:52:24;1.20;;;0.70;;
40074;SDS011;26529;51.530;11.754;2023-05-07T04:54:51;1.67;;;0.90;;
40074;SDS011;26529;51.530;11.754;2023-05-07T04:57:16;1.70;;;0.82;;
40074;SDS011;26529;51.530;11.754;2023-05-07T04:59:43;2.03;;;0.90;;
40074;SDS011;26529;51.530;11.754;2023-05-07T05:02:09;2.05;;;1.05;;
40074;SDS011;26529;51.530;11.754;2023-05-07T05:04:35;3.28;;;0.98;;
40074;SDS011;26529;51.530;11.754;2023-05-07T05:07:02;1.02;;;0.68;;
40074;SDS011;26529;51.530;11.754;2023-05-07T05:09:29;1.92;;;1.10;;
40074;SDS011;26529;51.530;11.754;2023-05-07T05:11:55;1.73;;;0.90;;
40074;SDS011;26529;51.530;11.754;2023-05-07T05:14:21;1.63;;;0.93;;
40074;SDS011;26529;51.530;11.754;2023-05-07T05:16:47;0.95;;;0.88;;
40074;SDS011;26529;51.530;11.754;2023-05-07T05:19:12;1.40;;;0.85;;
40074;SDS011;26529;51.530;11.754;2023-05-07T05:21:39;1.75;;;0.93;;
40074;SDS011;26529;51.530;11.754;2023-05-07T05:24:07;1.10;;;0.80;;
40074;SDS011;26529;51.530;11.754;2023-05-07T05:26:33;0.80;;;0.65;;
40074;SDS011;26529;51.530;11.754;2023-05-07T05:29:00;1.42;;;0.80;;
40074;SDS011;26529;51.530;11.754;2023-05-07T05:31:28;1.45;;;0.88;;
40074;SDS011;26529;51.530;11.754;2023-05-07T05:33:54;2.35;;;1.30;;
40074;SDS011;26529;51.530;11.754;2023-05-07T05:36:20;1.40;;;1.17;;
40074;SDS011;26529;51.530;11.754;2023-05-07T05:38:47;1.92;;;0.93;;
40074;SDS011;26529;51.530;11.754;2023-05-07T05:41:13;1.58;;;1.00;;
40074;SDS011;26529;51.530;11.754;2023-05-07T05:43:38;2.15;;;1.15;;
40074;SDS011;26529;51.530;11.754;2023-05-07T05:46:04;2.33;;;1.02;;
40074;SDS011;26529;51.530;11.754;2023-05-07T05:48:30;1.92;;;1.00;;
40074;SDS011;26529;51.530;11.754;2023-05-07T05:50:57;4.68;;;1.08;;
40074;SDS011;26529;51.530;11.754;2023-05-07T05:53:23;3.78;;;1.38;;
40074;SDS011;26529;51.530;11.754;2023-05-07T05:55:49;2.25;;;1.25;;
40074;SDS011;26529;51.530;11.754;2023-05-07T05:58:15;3.42;;;1.17;;
40074;SDS011;26529;51.530;11.754;2023-05-07T06:00:47;2.83;;;1.45;;
40074;SDS011;26529;51.530;11.754;2023-05-07T06:03:14;5.55;;;1.50;;
40074;SDS011;26529;51.530;11.754;2023-05-07T06:05:39;1.92;;;1.17;;
40074;SDS011;26529;51.530;11.754;2023-05-07T06:08:05;5.03;;;1.50;;
40074;SDS011;26529;51.530;11.754;2023-05-07T06:10:32;6.03;;;2.00;;
40074;SDS011;26529;51.530;11.754;2023-05-07T06:12:58;5.10;;;1.50;;
40074;SDS011;26529;51.530;11.754;2023-05-07T06:15:24;4.95;;;2.03;;
40074;SDS011;26529;51.530;11.754;2023-05-07T06:17:50;2.83;;;1.60;;
40074;SDS011;26529;51.530;11.754;2023-05-07T06:20:16;6.30;;;1.95;;
40074;SDS011;26529;51.530;11.754;2023-05-07T06:22:41;4.35;;;2.00;;
40074;SDS011;26529;51.530;11.754;2023-05-07T06:25:09;4.70;;;1.77;;
40074;SDS011;26529;51.530;11.754;2023-05-07T06:27:35;2.78;;;1.77;;
40074;SDS011;26529;51.530;11.754;2023-05-07T06:30:01;8.18;;;1.98;;
40074;SDS011;26529;51.530;11.754;2023-05-07T06:32:26;7.50;;;1.95;;
40074;SDS011;26529;51.530;11.754;2023-05-07T06:34:52;6.97;;;2.05;;
40074;SDS011;26529;51.530;11.754;2023-05-07T06:37:18;5.88;;;1.98;;
40074;SDS011;26529;51.530;11.754;2023-05-07T06:39:50;4.55;;;1.95;;
40074;SDS011;26529;51.530;11.754;2023-05-07T06:42:15;5.65;;;1.77;;
40074;SDS011;26529;51.530;11.754;2023-05-07T06:44:45;2.45;;;1.63;;
40074;SDS011;26529;51.530;11.754;2023-05-07T06:47:12;6.00;;;2.15;;
40074;SDS011;26529;51.530;11.754;2023-05-07T06:49:39;4.18;;;2.40;;
40074;SDS011;26529;51.530;11.754;2023-05-07T06:52:05;5.53;;;1.75;;
40074;SDS011;26529;51.530;11.754;2023-05-07T06:54:31;4.10;;;1.90;;
40074;SDS011;26529;51.530;11.754;2023-05-07T06:56:57;2.72;;;1.83;;
40074;SDS011;26529;51.530;11.754;2023-05-07T06:59:24;4.88;;;1.70;;
40074;SDS011;26529;51.530;11.754;2023-05-07T07:01:51;4.05;;;2.25;;
40074;SDS011;26529;51.530;11.754;2023-05-07T07:04:16;4.38;;;2.13;;
40074;SDS011;26529;51.530;11.754;2023-05-07T07:06:45;4.47;;;2.67;;
40074;SDS011;26529;51.530;11.754;2023-05-07T07:09:12;4.25;;;2.05;;
40074;SDS011;26529;51.530;11.754;2023-05-07T07:11:37;4.63;;;2.17;;
40074;SDS011;26529;51.530;11.754;2023-05-07T07:14:04;4.35;;;2.13;;
40074;SDS011;26529;51.530;11.754;2023-05-07T07:16:33;5.60;;;1.92;;
40074;SDS011;26529;51.530;11.754;2023-05-07T07:18:58;2.45;;;2.05;;
40074;SDS011;26529;51.530;11.754;2023-05-07T07:21:24;7.65;;;2.80;;
40074;SDS011;26529;51.530;11.754;2023-05-07T07:23:51;5.03;;;2.38;;
40074;SDS011;26529;51.530;11.754;2023-05-07T07:26:19;4.28;;;2.38;;
40074;SDS011;26529;51.530;11.754;2023-05-07T07:28:45;2.97;;;1.90;;
40074;SDS011;26529;51.530;11.754;2023-05-07T07:31:13;6.55;;;2.13;;
40074;SDS011;26529;51.530;11.754;2023-05-07T07:33:39;7.30;;;2.60;;
40074;SDS011;26529;51.530;11.754;2023-05-07T07:36:05;7.82;;;2.03;;
40074;SDS011;26529;51.530;11.754;2023-05-07T07:38:32;5.95;;;2.38;;
40074;SDS011;26529;51.530;11.754;2023-05-07T07:40:58;4.88;;;2.55;;
40074;SDS011;26529;51.530;11.754;2023-05-07T07:43:23;7.53;;;2.55;;
40074;SDS011;26529;51.530;11.754;2023-05-07T07:45:50;7.60;;;2.78;;
40074;SDS011;26529;51.530;11.754;2023-05-07T07:48:15;10.60;;;2.47;;
40074;SDS011;26529;51.530;11.754;2023-05-07T07:50:42;6.13;;;2.50;;
40074;SDS011;26529;51.530;11.754;2023-05-07T07:53:07;9.93;;;3.55;;
40074;SDS011;26529;51.530;11.754;2023-05-07T07:55:37;8.45;;;2.90;;
40074;SDS011;26529;51.530;11.754;2023-05-07T07:58:04;13.73;;;3.03;;
40074;SDS011;26529;51.530;11.754;2023-05-07T08:00:30;18.48;;;4.00;;
40074;SDS011;26529;51.530;11.754;2023-05-07T08:02:56;16.23;;;3.35;;
40074;SDS011;26529;51.530;11.754;2023-05-07T08:05:26;13.02;;;2.83;;
40074;SDS011;26529;51.530;11.754;2023-05-07T08:07:52;9.75;;;2.90;;
40074;SDS011;26529;51.530;11.754;2023-05-07T08:10:22;10.55;;;3.03;;
40074;SDS011;26529;51.530;11.754;2023-05-07T08:12:52;12.15;;;2.88;;
40074;SDS011;26529;51.530;11.754;2023-05-07T08:15:18;10.48;;;2.33;;
40074;SDS011;26529;51.530;11.754;2023-05-07T08:17:44;10.35;;;2.85;;
40074;SDS011;26529;51.530;11.754;2023-05-07T08:20:09;12.95;;;3.50;;
40074;SDS011;26529;51.530;11.754;2023-05-07T08:22:36;16.75;;;4.00;;
40074;SDS011;26529;51.530;11.754;2023-05-07T08:25:02;7.57;;;2.85;;
40074;SDS011;26529;51.530;11.754;2023-05-07T08:27:28;13.52;;;3.40;;
40074;SDS011;26529;51.530;11.754;2023-05-07T08:29:54;12.55;;;3.28;;
40074;SDS011;26529;51.530;11.754;2023-05-07T08:32:20;18.90;;;3.63;;
40074;SDS011;26529;51.530;11.754;2023-05-07T08:34:47;14.52;;;3.22;;
40074;SDS011;26529;51.530;11.754;2023-05-07T08:37:13;16.42;;;3.30;;
40074;SDS011;26529;51.530;11.754;2023-05-07T08:39:39;6.50;;;2.65;;
40074;SDS011;26529;51.530;11.754;2023-05-07T08:42:10;18.33;;;3.72;;
40074;SDS011;26529;51.530;11.754;2023-05-07T08:44:37;10.20;;;3.20;;
40074;SDS011;26529;51.530;11.754;2023-05-07T08:47:06;16.67;;;4.20;;
40074;SDS011;26529;51.530;11.754;2023-05-07T08:49:33;12.88;;;3.63;;
40074;SDS011;26529;51.530;11.754;2023-05-07T08:51:59;12.05;;;3.83;;
40074;SDS011;26529;51.530;11.754;2023-05-07T08:54:26;13.48;;;4.10;;
40074;SDS011;26529;51.530;11.754;2023-05-07T08:56:53;11.15;;;3.83;;
40074;SDS011;26529;51.530;11.754;2023-05-07T08:59:19;16.77;;;4.00;;
40074;SDS011;26529;51.530;11.754;2023-05-07T09:01:44;17.17;;;4.03;;
40074;SDS011;26529;51.530;11.754;2023-05-07T09:04:11;15.68;;;3.88;;
40074;SDS011;26529;51.530;11.754;2023-05-07T09:06:38;14.63;;;3.75;;
40074;SDS011;26529;51.530;11.754;2023-05-07T09:09:08;12.98;;;3.85;;
40074;SDS011;26529;51.530;11.754;2023-05-07T09:11:34;23.02;;;4.60;;
40074;SDS011;26529;51.530;11.754;2023-05-07T09:14:00;18.33;;;3.92;;
40074;SDS011;26529;51.530;11.754;2023-05-07T09:16:31;11.95;;;3.40;;
40074;SDS011;26529;51.530;11.754;2023-05-07T09:18:58;12.65;;;3.75;;
40074;SDS011;26529;51.530;11.754;2023-05-07T09:21:25;16.52;;;4.07;;
40074;SDS011;26529;51.530;11.754;2023-05-07T09:23:54;16.48;;;3.50;;
40074;SDS011;26529;51.530;11.754;2023-05-07T09:26:24;19.95;;;4.03;;
40074;SDS011;26529;51.530;11.754;2023-05-07T09:28:51;13.98;;;3.67;;
40074;SDS011;26529;51.530;11.754;2023-05-07T09:31:17;17.27;;;4.30;;
40074;SDS011;26529;51.530;11.754;2023-05-07T09:33:43;12.98;;;3.60;;
40074;SDS011;26529;51.530;11.754;2023-05-07T09:36:10;14.23;;;3.88;;
40074;SDS011;26529;51.530;11.754;2023-05-07T09:38:38;18.40;;;4.00;;
40074;SDS011;26529;51.530;11.754;2023-05-07T09:43:53;20.05;;;4.47;;
40074;SDS011;26529;51.530;11.754;2023-05-07T09:46:20;15.93;;;4.95;;
40074;SDS011;26529;51.530;11.754;2023-05-07T09:48:53;16.20;;;4.30;;
40074;SDS011;26529;51.530;11.754;2023-05-07T09:51:28;14.45;;;3.80;;
40074;SDS011;26529;51.530;11.754;2023-05-07T09:53:57;20.40;;;3.77;;
40074;SDS011;26529;51.530;11.754;2023-05-07T09:56:27;13.95;;;3.55;;
40074;SDS011;26529;51.530;11.754;2023-05-07T09:58:54;14.45;;;4.32;;
40074;SDS011;26529;51.530;11.754;2023-05-07T10:01:22;14.00;;;3.83;;
40074;SDS011;26529;51.530;11.754;2023-05-07T10:03:50;11.45;;;3.58;;
40074;SDS011;26529;51.530;11.754;2023-05-07T10:06:19;17.23;;;3.85;;
40074;SDS011;26529;51.530;11.754;2023-05-07T10:08:45;13.48;;;3.92;;
40074;SDS011;26529;51.530;11.754;2023-05-07T10:11:12;14.40;;;3.78;;
40074;SDS011;26529;51.530;11.754;2023-05-07T10:13:41;12.18;;;3.58;;
40074;SDS011;26529;51.530;11.754;2023-05-07T10:16:08;14.20;;;3.45;;
40074;SDS011;26529;51.530;11.754;2023-05-07T10:18:41;11.02;;;3.80;;
40074;SDS011;26529;51.530;11.754;2023-05-07T10:23:39;16.55;;;4.03;;
40074;SDS011;26529;51.530;11.754;2023-05-07T10:26:06;12.18;;;3.40;;
40074;SDS011;26529;51.530;11.754;2023-05-07T10:28:36;12.48;;;3.72;;
40074;SDS011;26529;51.530;11.754;2023-05-07T10:33:44;16.38;;;3.88;;
40074;SDS011;26529;51.530;11.754;2023-05-07T10:36:13;13.23;;;3.33;;
40074;SDS011;26529;51.530;11.754;2023-05-07T10:38:39;11.65;;;3.63;;
40074;SDS011;26529;51.530;11.754;2023-05-07T10:41:06;16.25;;;3.60;;
40074;SDS011;26529;51.530;11.754;2023-05-07T10:43:40;12.70;;;2.92;;
40074;SDS011;26529;51.530;11.754;2023-05-07T10:46:20;12.60;;;3.28;;
40074;SDS011;26529;51.530;11.754;2023-05-07T10:49:16;11.80;;;2.97;;
40074;SDS011;26529;51.530;11.754;2023-05-07T10:51:47;11.80;;;3.55;;
40074;SDS011;26529;51.530;11.754;2023-05-07T10:54:37;9.80;;;3.15;;
40074;SDS011;26529;51.530;11.754;2023-05-07T10:59:56;12.68;;;2.90;;
40074;SDS011;26529;51.530;11.754;2023-05-07T11:05:25;10.73;;;2.80;;
40074;SDS011;26529;51.530;11.754;2023-05-07T11:08:29;12.52;;;3.33;;
40074;SDS011;26529;51.530;11.754;2023-05-07T11:11:46;10.75;;;3.55;;
40074;SDS011;26529;51.530;11.754;2023-05-07T11:14:42;10.55;;;3.15;;
40074;SDS011;26529;51.530;11.754;2023-05-07T11:17:13;9.77;;;3.28;;
40074;SDS011;26529;51.530;11.754;2023-05-07T11:19:52;7.95;;;3.30;;
40074;SDS011;26529;51.530;11.754;2023-05-07T11:25:17;14.13;;;3.08;;
40074;SDS011;26529;51.530;11.754;2023-05-07T11:27:51;8.93;;;2.75;;
40074;SDS011;26529;51.530;11.754;2023-05-07T11:30:17;8.63;;;3.25;;
40074;SDS011;26529;51.530;11.754;2023-05-07T11:32:44;13.30;;;3.20;;
40074;SDS011;26529;51.530;11.754;2023-05-07T11:35:12;8.13;;;2.72;;
40074;SDS011;26529;51.530;11.754;2023-05-07T11:37:41;8.07;;;2.90;;
40074;SDS011;26529;51.530;11.754;2023-05-07T11:40:10;8.13;;;2.85;;
40074;SDS011;26529;51.530;11.754;2023-05-07T11:42:37;8.55;;;3.17;;
40074;SDS011;26529;51.530;11.754;2023-05-07T11:45:04;9.75;;;3.05;;
40074;SDS011;26529;51.530;11.754;2023-05-07T11:47:31;5.45;;;2.65;;
40074;SDS011;26529;51.530;11.754;2023-05-07T11:49:57;7.95;;;3.35;;
40074;SDS011;26529;51.530;11.754;2023-05-07T11:52:28;5.93;;;2.45;;
40074;SDS011;26529;51.530;11.754;2023-05-07T11:54:54;7.03;;;2.65;;
40074;SDS011;26529;51.530;11.754;2023-05-07T11:57:22;4.93;;;2.58;;
40074;SDS011;26529;51.530;11.754;2023-05-07T11:59:52;9.38;;;2.58;;
40074;SDS011;26529;51.530;11.754;2023-05-07T12:02:18;10.38;;;2.90;;
40074;SDS011;26529;51.530;11.754;2023-05-07T12:04:44;5.90;;;2.38;;
40074;SDS011;26529;51.530;11.754;2023-05-07T12:07:13;4.22;;;1.95;;
40074;SDS011;26529;51.530;11.754;2023-05-07T12:09:43;8.57;;;2.92;;
40074;SDS011;26529;51.530;11.754;2023-05-07T12:12:09;6.85;;;2.70;;
40074;SDS011;26529;51.530;11.754;2023-05-07T12:14:41;8.35;;;3.22;;
40074;SDS011;26529;51.530;11.754;2023-05-07T12:17:08;6.78;;;2.40;;
40074;SDS011;26529;51.530;11.754;2023-05-07T12:19:35;4.88;;;2.22;;
40074;SDS011;26529;51.530;11.754;2023-05-07T12:22:03;6.30;;;2.40;;
40074;SDS011;26529;51.530;11.754;2023-05-07T12:24:29;5.13;;;3.08;;
40074;SDS011;26529;51.530;11.754;2023-05-07T12:26:54;4.72;;;2.30;;
40074;SDS011;26529;51.530;11.754;2023-05-07T12:29:23;6.95;;;2.60;;
40074;SDS011;26529;51.530;11.754;2023-05-07T12:31:49;7.50;;;2.72;;
40074;SDS011;26529;51.530;11.754;2023-05-07T12:34:15;6.75;;;2.50;;
40074;SDS011;26529;51.530;11.754;2023-05-07T12:36:41;5.80;;;2.75;;
40074;SDS011;26529;51.530;11.754;2023-05-07T12:39:07;8.63;;;2.67;;
40074;SDS011;26529;51.530;11.754;2023-05-07T12:44:22;6.85;;;2.45;;
40074;SDS011;26529;51.530;11.754;2023-05-07T12:46:49;5.68;;;2.47;;
40074;SDS011;26529;51.530;11.754;2023-05-07T12:49:15;4.35;;;2.15;;
40074;SDS011;26529;51.530;11.754;2023-05-07T12:51:40;6.28;;;2.70;;
40074;SDS011;26529;51.530;11.754;2023-05-07T12:54:06;4.53;;;1.98;;
40074;SDS011;26529;51.530;11.754;2023-05-07T12:56:31;5.88;;;1.90;;
40074;SDS011;26529;51.530;11.754;2023-05-07T12:59:00;7.13;;;2.88;;
40074;SDS011;26529;51.530;11.754;2023-05-07T13:01:29;7.70;;;2.47;;
40074;SDS011;26529;51.530;11.754;2023-05-07T13:04:03;5.50;;;2.20;;
40074;SDS011;26529;51.530;11.754;2023-05-07T13:06:29;3.85;;;1.98;;
40074;SDS011;26529;51.530;11.754;2023-05-07T13:08:56;6.53;;;2.30;;
40074;SDS011;26529;51.530;11.754;2023-05-07T13:11:21;9.32;;;3.10;;
40074;SDS011;26529;51.530;11.754;2023-05-07T13:13:47;5.15;;;2.40;;
40074;SDS011;26529;51.530;11.754;2023-05-07T13:16:13;5.53;;;2.72;;
40074;SDS011;26529;51.530;11.754;2023-05-07T13:18:39;5.28;;;2.80;;
40074;SDS011;26529;51.530;11.754;2023-05-07T13:21:05;6.20;;;1.90;;
40074;SDS011;26529;51.530;11.754;2023-05-07T13:23:31;3.58;;;1.85;;
40074;SDS011;26529;51.530;11.754;2023-05-07T13:25:57;6.18;;;2.30;;
40074;SDS011;26529;51.530;11.754;2023-05-07T13:28:23;5.55;;;2.40;;
40074;SDS011;26529;51.530;11.754;2023-05-07T13:30:49;4.82;;;1.70;;
40074;SDS011;26529;51.530;11.754;2023-05-07T13:33:17;3.97;;;2.30;;
40074;SDS011;26529;51.530;11.754;2023-05-07T13:35:42;4.20;;;1.90;;
40074;SDS011;26529;51.530;11.754;2023-05-07T13:38:08;4.97;;;2.35;;
40074;SDS011;26529;51.530;11.754;2023-05-07T13:40:33;3.67;;;1.90;;
40074;SDS011;26529;51.530;11.754;2023-05-07T13:42:59;4.13;;;1.98;;
40074;SDS011;26529;51.530;11.754;2023-05-07T13:45:27;4.53;;;1.85;;
40074;SDS011;26529;51.530;11.754;2023-05-07T13:47:54;4.47;;;2.13;;
40074;SDS011;26529;51.530;11.754;2023-05-07T13:50:20;4.10;;;2.00;;
40074;SDS011;26529;51.530;11.754;2023-05-07T13:52:46;3.70;;;1.98;;
40074;SDS011;26529;51.530;11.754;2023-05-07T13:55:18;5.38;;;2.28;;
40074;SDS011;26529;51.530;11.754;2023-05-07T13:57:44;3.63;;;1.90;;
40074;SDS011;26529;51.530;11.754;2023-05-07T14:00:10;4.57;;;1.83;;
40074;SDS011;26529;51.530;11.754;2023-05-07T14:02:42;2.70;;;1.50;;
40074;SDS011;26529;51.530;11.754;2023-05-07T14:05:08;4.68;;;1.90;;
40074;SDS011;26529;51.530;11.754;2023-05-07T14:07:34;5.50;;;2.03;;
40074;SDS011;26529;51.530;11.754;2023-05-07T14:10:00;4.32;;;2.30;;
40074;SDS011;26529;51.530;11.754;2023-05-07T14:12:26;4.10;;;1.67;;
40074;SDS011;26529;51.530;11.754;2023-05-07T14:14:52;3.58;;;2.08;;
40074;SDS011;26529;51.530;11.754;2023-05-07T14:17:17;3.40;;;2.13;;
40074;SDS011;26529;51.530;11.754;2023-05-07T14:19:43;2.97;;;2.00;;
40074;SDS011;26529;51.530;11.754;2023-05-07T14:22:09;4.70;;;1.80;;
40074;SDS011;26529;51.530;11.754;2023-05-07T14:24:34;4.00;;;2.05;;
40074;SDS011;26529;51.530;11.754;2023-05-07T14:27:00;3.20;;;2.35;;
40074;SDS011;26529;51.530;11.754;2023-05-07T14:29:25;4.63;;;1.85;;
40074;SDS011;26529;51.530;11.754;2023-05-07T14:31:51;3.78;;;2.00;;
40074;SDS011;26529;51.530;11.754;2023-05-07T14:34:16;3.38;;;1.70;;
40074;SDS011;26529;51.530;11.754;2023-05-07T14:36:42;3.08;;;1.80;;
40074;SDS011;26529;51.530;11.754;2023-05-07T14:39:09;3.47;;;1.63;;
40074;SDS011;26529;51.530;11.754;2023-05-07T14:41:35;2.72;;;1.75;;
40074;SDS011;26529;51.530;11.754;2023-05-07T14:44:00;4.35;;;2.00;;
40074;SDS011;26529;51.530;11.754;2023-05-07T14:46:26;4.40;;;1.85;;
40074;SDS011;26529;51.530;11.754;2023-05-07T14:48:52;3.60;;;1.70;;
40074;SDS011;26529;51.530;11.754;2023-05-07T14:51:18;3.55;;;1.67;;